sensor_id;sensor_type;location;lat;lon;timestamp;pressure;altitude;pressure_sealevel;temperature;humidity
63306;BME280;50735;52.060;1.248;2023-01-27T00:00:48;102687.52;;;4.07;57.70
63306;BME280;50735;52.060;1.248;2023-01-27T00:03:15;102683.72;;;4.26;57.64
63306;BME280;50735;52.060;1.248;2023-01-27T00:05:41;102678.67;;;4.17;57.77
63306;BME280;50735;52.060;1.248;2023-01-27T00:08:08;102685.88;;;3.95;57.60
63306;BME280;50735;52.060;1.248;2023-01-27T00:10:35;102686.98;;;3.96;58.05
63306;BME280;50735;52.060;1.248;2023-01-27T00:13:02;102685.59;;;3.97;57.86
63306;BME280;50735;52.060;1.248;2023-01-27T00:15:30;102682.41;;;3.83;57.97
63306;BME280;50735;52.060;1.248;2023-01-27T00:17:57;102683.43;;;4.04;57.71
63306;BME280;50735;52.060;1.248;2023-01-27T00:20:24;102676.42;;;4.00;57.90
63306;BME280;50735;52.060;1.248;2023-01-27T00:22:51;102666.42;;;3.92;58.10
63306;BME280;50735;52.060;1.248;2023-01-27T00:25:17;102667.20;;;3.99;57.94
63306;BME280;50735;52.060;1.248;2023-01-27T00:27:44;102666.08;;;3.83;57.53
63306;BME280;50735;52.060;1.248;2023-01-27T00:30:12;102662.90;;;3.74;57.94
63306;BME280;50735;52.060;1.248;2023-01-27T00:32:38;102657.99;;;3.90;57.81
63306;BME280;50735;52.060;1.248;2023-01-27T00:35:06;102656.88;;;4.06;57.91
63306;BME280;50735;52.060;1.248;2023-01-27T00:37:32;102656.62;;;4.00;57.96
63306;BME280;50735;52.060;1.248;2023-01-27T00:39:59;102655.57;;;3.83;57.69
63306;BME280;50735;52.060;1.248;2023-01-27T00:42:26;102657.29;;;3.61;57.94
63306;BME280;50735;52.060;1.248;2023-01-27T00:44:52;102658.73;;;3.89;58.11
63306;BME280;50735;52.060;1.248;2023-01-27T00:47:19;102654.14;;;3.63;58.61
63306;BME280;50735;52.060;1.248;2023-01-27T00:49:46;102650.68;;;3.63;58.60
63306;BME280;50735;52.060;1.248;2023-01-27T00:52:12;102655.83;;;3.84;58.65
63306;BME280;50735;52.060;1.248;2023-01-27T00:54:39;102656.17;;;3.90;58.56
63306;BME280;50735;52.060;1.248;2023-01-27T00:57:06;102653.34;;;3.96;58.38
63306;BME280;50735;52.060;1.248;2023-01-27T00:59:32;102652.67;;;3.98;58.49
63306;BME280;50735;52.060;1.248;2023-01-27T01:01:59;102648.21;;;3.99;58.57
63306;BME280;50735;52.060;1.248;2023-01-27T01:04:26;102650.32;;;3.98;58.78
63306;BME280;50735;52.060;1.248;2023-01-27T01:06:53;102653.87;;;3.69;58.80
63306;BME280;50735;52.060;1.248;2023-01-27T01:09:19;102655.57;;;4.06;59.01
63306;BME280;50735;52.060;1.248;2023-01-27T01:11:46;102660.09;;;4.13;59.12
63306;BME280;50735;52.060;1.248;2023-01-27T01:14:13;102657.76;;;4.15;59.11
63306;BME280;50735;52.060;1.248;2023-01-27T01:16:39;102662.29;;;4.03;59.08
63306;BME280;50735;52.060;1.248;2023-01-27T01:19:06;102664.57;;;3.99;59.12
63306;BME280;50735;52.060;1.248;2023-01-27T01:21:33;102663.17;;;4.19;59.28
63306;BME280;50735;52.060;1.248;2023-01-27T01:23:59;102660.92;;;4.13;59.42
63306;BME280;50735;52.060;1.248;2023-01-27T01:26:26;102656.52;;;4.10;59.64
63306;BME280;50735;52.060;1.248;2023-01-27T01:28:53;102655.89;;;4.03;59.86
63306;BME280;50735;52.060;1.248;2023-01-27T01:31:19;102654.48;;;3.79;59.98
63306;BME280;50735;52.060;1.248;2023-01-27T01:33:48;102646.71;;;4.09;59.81
63306;BME280;50735;52.060;1.248;2023-01-27T01:36:17;102650.24;;;3.66;59.83
63306;BME280;50735;52.060;1.248;2023-01-27T01:38:44;102657.91;;;3.84;59.74
63306;BME280;50735;52.060;1.248;2023-01-27T01:41:14;102655.73;;;3.92;59.45
63306;BME280;50735;52.060;1.248;2023-01-27T01:43:41;102652.41;;;4.16;59.56
63306;BME280;50735;52.060;1.248;2023-01-27T01:46:09;102659.49;;;3.84;59.80
63306;BME280;50735;52.060;1.248;2023-01-27T01:48:40;102657.77;;;3.87;60.09
63306;BME280;50735;52.060;1.248;2023-01-27T01:51:09;102660.61;;;3.41;60.28
63306;BME280;50735;52.060;1.248;2023-01-27T01:53:40;102662.63;;;3.77;60.52
63306;BME280;50735;52.060;1.248;2023-01-27T01:56:12;102663.36;;;3.74;60.20
63306;BME280;50735;52.060;1.248;2023-01-27T01:58:41;102658.84;;;3.66;60.18
63306;BME280;50735;52.060;1.248;2023-01-27T02:01:10;102660.94;;;3.48;60.78
63306;BME280;50735;52.060;1.248;2023-01-27T02:03:39;102665.12;;;3.64;60.31
63306;BME280;50735;52.060;1.248;2023-01-27T02:06:08;102663.50;;;3.66;60.46
63306;BME280;50735;52.060;1.248;2023-01-27T02:08:38;102661.25;;;3.82;60.64
63306;BME280;50735;52.060;1.248;2023-01-27T02:11:06;102663.05;;;3.83;60.73
63306;BME280;50735;52.060;1.248;2023-01-27T02:13:33;102655.51;;;3.66;60.93
63306;BME280;50735;52.060;1.248;2023-01-27T02:16:00;102649.45;;;3.27;62.11
63306;BME280;50735;52.060;1.248;2023-01-27T02:18:27;102653.72;;;3.62;61.46
63306;BME280;50735;52.060;1.248;2023-01-27T02:20:55;102655.34;;;3.40;61.83
63306;BME280;50735;52.060;1.248;2023-01-27T02:23:34;102661.22;;;3.71;61.33
63306;BME280;50735;52.060;1.248;2023-01-27T02:26:07;102660.14;;;3.79;60.66
63306;BME280;50735;52.060;1.248;2023-01-27T02:28:36;102656.59;;;3.77;60.75
63306;BME280;50735;52.060;1.248;2023-01-27T02:31:03;102654.40;;;3.72;61.22
63306;BME280;50735;52.060;1.248;2023-01-27T02:33:30;102653.19;;;3.76;60.99
63306;BME280;50735;52.060;1.248;2023-01-27T02:36:01;102655.85;;;3.88;60.45
63306;BME280;50735;52.060;1.248;2023-01-27T02:38:32;102654.17;;;3.79;60.39
63306;BME280;50735;52.060;1.248;2023-01-27T02:41:03;102651.11;;;4.16;60.03
63306;BME280;50735;52.060;1.248;2023-01-27T02:43:33;102655.75;;;4.45;59.54
63306;BME280;50735;52.060;1.248;2023-01-27T02:45:59;102653.66;;;4.13;59.65
63306;BME280;50735;52.060;1.248;2023-01-27T02:48:26;102654.50;;;4.25;59.30
63306;BME280;50735;52.060;1.248;2023-01-27T02:50:53;102659.02;;;4.43;59.22
63306;BME280;50735;52.060;1.248;2023-01-27T02:53:20;102661.30;;;4.32;59.36
63306;BME280;50735;52.060;1.248;2023-01-27T02:55:46;102659.08;;;4.43;59.38
63306;BME280;50735;52.060;1.248;2023-01-27T02:58:13;102655.05;;;4.44;59.53
63306;BME280;50735;52.060;1.248;2023-01-27T03:00:40;102655.15;;;4.53;59.36
63306;BME280;50735;52.060;1.248;2023-01-27T03:03:06;102655.50;;;4.47;59.17
63306;BME280;50735;52.060;1.248;2023-01-27T03:05:33;102652.55;;;4.34;59.38
63306;BME280;50735;52.060;1.248;2023-01-27T03:08:00;102642.80;;;4.55;59.30
63306;BME280;50735;52.060;1.248;2023-01-27T03:10:26;102644.85;;;4.31;59.25
63306;BME280;50735;52.060;1.248;2023-01-27T03:12:53;102644.01;;;4.21;59.05
63306;BME280;50735;52.060;1.248;2023-01-27T03:15:20;102650.10;;;4.61;59.01
63306;BME280;50735;52.060;1.248;2023-01-27T03:17:46;102647.65;;;4.39;58.90
63306;BME280;50735;52.060;1.248;2023-01-27T03:20:13;102644.84;;;4.31;58.87
63306;BME280;50735;52.060;1.248;2023-01-27T03:22:41;102648.94;;;4.31;58.94
63306;BME280;50735;52.060;1.248;2023-01-27T03:25:08;102644.45;;;4.23;58.83
63306;BME280;50735;52.060;1.248;2023-01-27T03:27:36;102645.70;;;4.48;58.78
63306;BME280;50735;52.060;1.248;2023-01-27T03:30:04;102648.02;;;4.20;58.72
63306;BME280;50735;52.060;1.248;2023-01-27T03:32:31;102648.12;;;4.41;58.51
63306;BME280;50735;52.060;1.248;2023-01-27T03:34:58;102648.38;;;4.39;58.42
63306;BME280;50735;52.060;1.248;2023-01-27T03:37:25;102653.33;;;4.25;58.16
63306;BME280;50735;52.060;1.248;2023-01-27T03:39:52;102654.14;;;4.39;58.28
63306;BME280;50735;52.060;1.248;2023-01-27T03:42:18;102656.24;;;4.24;58.36
63306;BME280;50735;52.060;1.248;2023-01-27T03:44:45;102657.23;;;4.33;58.18
63306;BME280;50735;52.060;1.248;2023-01-27T03:47:12;102653.34;;;4.33;58.01
63306;BME280;50735;52.060;1.248;2023-01-27T03:49:39;102649.00;;;4.52;57.99
63306;BME280;50735;52.060;1.248;2023-01-27T03:52:05;102646.88;;;4.29;57.86
63306;BME280;50735;52.060;1.248;2023-01-27T03:54:32;102646.15;;;4.50;57.97
63306;BME280;50735;52.060;1.248;2023-01-27T03:56:59;102646.34;;;4.67;57.63
63306;BME280;50735;52.060;1.248;2023-01-27T03:59:25;102647.84;;;4.46;57.67
63306;BME280;50735;52.060;1.248;2023-01-27T04:01:52;102648.84;;;4.65;57.30
63306;BME280;50735;52.060;1.248;2023-01-27T04:04:19;102647.62;;;4.38;57.01
63306;BME280;50735;52.060;1.248;2023-01-27T04:06:45;102642.32;;;4.29;57.41
63306;BME280;50735;52.060;1.248;2023-01-27T04:09:18;102638.15;;;4.50;57.55
63306;BME280;50735;52.060;1.248;2023-01-27T04:11:45;102638.72;;;4.59;57.31
63306;BME280;50735;52.060;1.248;2023-01-27T04:14:13;102639.89;;;4.26;56.94
63306;BME280;50735;52.060;1.248;2023-01-27T04:16:40;102634.40;;;4.29;56.89
63306;BME280;50735;52.060;1.248;2023-01-27T04:19:08;102629.01;;;4.48;57.02
63306;BME280;50735;52.060;1.248;2023-01-27T04:21:36;102627.40;;;4.22;56.55
63306;BME280;50735;52.060;1.248;2023-01-27T04:24:03;102632.07;;;4.45;56.85
63306;BME280;50735;52.060;1.248;2023-01-27T04:26:31;102634.68;;;3.97;56.77
63306;BME280;50735;52.060;1.248;2023-01-27T04:28:58;102635.14;;;4.06;57.22
63306;BME280;50735;52.060;1.248;2023-01-27T04:31:25;102637.30;;;4.20;56.98
63306;BME280;50735;52.060;1.248;2023-01-27T04:33:52;102638.36;;;3.98;57.28
63306;BME280;50735;52.060;1.248;2023-01-27T04:36:18;102645.21;;;3.70;57.51
63306;BME280;50735;52.060;1.248;2023-01-27T04:38:45;102639.52;;;3.95;57.46
63306;BME280;50735;52.060;1.248;2023-01-27T04:41:12;102637.21;;;3.95;57.37
63306;BME280;50735;52.060;1.248;2023-01-27T04:43:38;102634.56;;;3.87;57.53
63306;BME280;50735;52.060;1.248;2023-01-27T04:46:05;102633.21;;;4.13;56.97
63306;BME280;50735;52.060;1.248;2023-01-27T04:48:32;102634.45;;;3.89;57.05
63306;BME280;50735;52.060;1.248;2023-01-27T04:51:00;102633.81;;;3.84;57.15
63306;BME280;50735;52.060;1.248;2023-01-27T04:53:26;102630.44;;;3.98;57.06
63306;BME280;50735;52.060;1.248;2023-01-27T04:56:00;102641.72;;;3.66;57.62
63306;BME280;50735;52.060;1.248;2023-01-27T04:58:27;102640.15;;;3.79;57.45
63306;BME280;50735;52.060;1.248;2023-01-27T05:00:53;102637.45;;;3.45;57.85
63306;BME280;50735;52.060;1.248;2023-01-27T05:03:20;102637.28;;;3.69;57.48
63306;BME280;50735;52.060;1.248;2023-01-27T05:05:47;102638.72;;;3.83;57.30
63306;BME280;50735;52.060;1.248;2023-01-27T05:08:14;102639.29;;;4.01;57.32
63306;BME280;50735;52.060;1.248;2023-01-27T05:10:42;102645.63;;;4.10;56.94
63306;BME280;50735;52.060;1.248;2023-01-27T05:13:09;102648.43;;;3.87;57.55
63306;BME280;50735;52.060;1.248;2023-01-27T05:15:36;102652.22;;;4.00;57.73
63306;BME280;50735;52.060;1.248;2023-01-27T05:18:02;102656.60;;;3.80;58.21
63306;BME280;50735;52.060;1.248;2023-01-27T05:20:30;102653.74;;;3.70;57.92
63306;BME280;50735;52.060;1.248;2023-01-27T05:22:56;102655.34;;;3.53;57.76
63306;BME280;50735;52.060;1.248;2023-01-27T05:25:23;102657.37;;;3.71;57.63
63306;BME280;50735;52.060;1.248;2023-01-27T05:27:52;102654.99;;;3.90;57.27
63306;BME280;50735;52.060;1.248;2023-01-27T05:30:19;102658.60;;;4.04;57.02
63306;BME280;50735;52.060;1.248;2023-01-27T05:32:45;102659.97;;;4.19;57.20
63306;BME280;50735;52.060;1.248;2023-01-27T05:35:13;102659.10;;;3.36;58.17
63306;BME280;50735;52.060;1.248;2023-01-27T05:37:40;102663.87;;;3.70;58.15
63306;BME280;50735;52.060;1.248;2023-01-27T05:40:08;102665.60;;;3.76;58.48
63306;BME280;50735;52.060;1.248;2023-01-27T05:42:36;102660.52;;;3.71;57.76
63306;BME280;50735;52.060;1.248;2023-01-27T05:45:03;102660.58;;;3.60;57.54
63306;BME280;50735;52.060;1.248;2023-01-27T05:47:30;102662.43;;;3.80;57.28
63306;BME280;50735;52.060;1.248;2023-01-27T05:49:57;102665.42;;;4.14;57.31
63306;BME280;50735;52.060;1.248;2023-01-27T05:52:23;102661.34;;;3.78;57.83
63306;BME280;50735;52.060;1.248;2023-01-27T05:54:50;102661.77;;;3.73;57.65
63306;BME280;50735;52.060;1.248;2023-01-27T05:57:17;102666.55;;;4.29;57.45
63306;BME280;50735;52.060;1.248;2023-01-27T05:59:43;102665.79;;;4.01;57.34
63306;BME280;50735;52.060;1.248;2023-01-27T06:02:10;102662.94;;;4.20;57.10
63306;BME280;50735;52.060;1.248;2023-01-27T06:04:37;102658.93;;;4.36;56.93
63306;BME280;50735;52.060;1.248;2023-01-27T06:07:03;102653.04;;;4.35;56.69
63306;BME280;50735;52.060;1.248;2023-01-27T06:09:30;102652.69;;;4.16;56.76
63306;BME280;50735;52.060;1.248;2023-01-27T06:11:57;102653.33;;;4.52;56.76
63306;BME280;50735;52.060;1.248;2023-01-27T06:14:25;102650.86;;;4.27;56.89
63306;BME280;50735;52.060;1.248;2023-01-27T06:16:51;102654.69;;;4.29;56.77
63306;BME280;50735;52.060;1.248;2023-01-27T06:19:18;102659.89;;;3.87;57.59
63306;BME280;50735;52.060;1.248;2023-01-27T06:21:46;102656.80;;;4.24;57.48
63306;BME280;50735;52.060;1.248;2023-01-27T06:24:12;102659.34;;;4.07;57.09
63306;BME280;50735;52.060;1.248;2023-01-27T06:26:40;102648.68;;;4.12;57.20
63306;BME280;50735;52.060;1.248;2023-01-27T06:29:06;102644.68;;;4.38;56.99
63306;BME280;50735;52.060;1.248;2023-01-27T06:31:33;102645.55;;;3.95;57.08
63306;BME280;50735;52.060;1.248;2023-01-27T06:34:00;102645.90;;;4.46;56.78
63306;BME280;50735;52.060;1.248;2023-01-27T06:36:26;102641.48;;;4.40;56.45
63306;BME280;50735;52.060;1.248;2023-01-27T06:38:53;102638.86;;;4.33;56.69
63306;BME280;50735;52.060;1.248;2023-01-27T06:41:20;102637.51;;;4.33;56.32
63306;BME280;50735;52.060;1.248;2023-01-27T06:43:46;102637.77;;;4.18;56.42
63306;BME280;50735;52.060;1.248;2023-01-27T06:46:13;102641.55;;;4.38;56.62
63306;BME280;50735;52.060;1.248;2023-01-27T06:48:40;102646.95;;;3.74;57.21
63306;BME280;50735;52.060;1.248;2023-01-27T06:51:07;102649.47;;;4.21;57.11
63306;BME280;50735;52.060;1.248;2023-01-27T06:53:34;102650.24;;;3.99;57.15
63306;BME280;50735;52.060;1.248;2023-01-27T06:56:01;102654.56;;;3.73;57.15
63306;BME280;50735;52.060;1.248;2023-01-27T06:58:28;102653.70;;;3.74;57.63
63306;BME280;50735;52.060;1.248;2023-01-27T07:00:56;102659.00;;;4.16;57.03
63306;BME280;50735;52.060;1.248;2023-01-27T07:03:23;102659.10;;;3.83;57.63
63306;BME280;50735;52.060;1.248;2023-01-27T07:05:51;102654.15;;;3.70;57.89
63306;BME280;50735;52.060;1.248;2023-01-27T07:08:18;102657.46;;;4.03;57.78
63306;BME280;50735;52.060;1.248;2023-01-27T07:10:45;102660.65;;;4.00;57.27
63306;BME280;50735;52.060;1.248;2023-01-27T07:13:13;102660.62;;;3.68;57.45
63306;BME280;50735;52.060;1.248;2023-01-27T07:15:40;102666.57;;;3.97;57.52
63306;BME280;50735;52.060;1.248;2023-01-27T07:18:07;102670.52;;;3.79;65.63
63306;BME280;50735;52.060;1.248;2023-01-27T07:20:35;102668.57;;;3.75;57.95
63306;BME280;50735;52.060;1.248;2023-01-27T07:23:03;102669.50;;;4.02;57.66
63306;BME280;50735;52.060;1.248;2023-01-27T07:25:32;102672.69;;;4.14;57.16
63306;BME280;50735;52.060;1.248;2023-01-27T07:28:00;102679.66;;;4.23;56.40
63306;BME280;50735;52.060;1.248;2023-01-27T07:30:29;102684.26;;;4.42;56.06
63306;BME280;50735;52.060;1.248;2023-01-27T07:33:02;102684.61;;;4.20;56.38
63306;BME280;50735;52.060;1.248;2023-01-27T07:35:29;102687.16;;;3.90;56.22
63306;BME280;50735;52.060;1.248;2023-01-27T07:37:56;102686.84;;;3.92;56.47
63306;BME280;50735;52.060;1.248;2023-01-27T07:40:23;102686.37;;;4.25;56.14
63306;BME280;50735;52.060;1.248;2023-01-27T07:42:51;102692.44;;;4.01;55.87
63306;BME280;50735;52.060;1.248;2023-01-27T07:45:17;102694.30;;;4.47;55.77
63306;BME280;50735;52.060;1.248;2023-01-27T07:47:44;102694.45;;;4.16;55.90
63306;BME280;50735;52.060;1.248;2023-01-27T07:50:11;102692.41;;;3.91;56.16
63306;BME280;50735;52.060;1.248;2023-01-27T07:52:37;102684.32;;;4.21;56.08
63306;BME280;50735;52.060;1.248;2023-01-27T07:55:05;102689.59;;;4.37;56.09
63306;BME280;50735;52.060;1.248;2023-01-27T07:57:31;102686.55;;;4.27;56.32
63306;BME280;50735;52.060;1.248;2023-01-27T07:59:58;102687.20;;;4.00;56.96
63306;BME280;50735;52.060;1.248;2023-01-27T08:02:25;102684.68;;;3.59;57.22
63306;BME280;50735;52.060;1.248;2023-01-27T08:04:52;102684.64;;;3.60;57.76
63306;BME280;50735;52.060;1.248;2023-01-27T08:07:18;102678.61;;;3.86;57.41
63306;BME280;50735;52.060;1.248;2023-01-27T08:09:45;102686.49;;;3.79;57.30
63306;BME280;50735;52.060;1.248;2023-01-27T08:12:12;102686.38;;;3.68;57.34
63306;BME280;50735;52.060;1.248;2023-01-27T08:14:39;102692.57;;;4.07;56.82
63306;BME280;50735;52.060;1.248;2023-01-27T08:17:06;102695.62;;;4.01;57.00
63306;BME280;50735;52.060;1.248;2023-01-27T08:19:32;102701.72;;;3.97;58.82
63306;BME280;50735;52.060;1.248;2023-01-27T08:21:59;102706.94;;;4.09;57.81
63306;BME280;50735;52.060;1.248;2023-01-27T08:24:25;102705.23;;;3.92;57.14
63306;BME280;50735;52.060;1.248;2023-01-27T08:26:52;102708.95;;;3.93;57.24
63306;BME280;50735;52.060;1.248;2023-01-27T08:29:19;102713.86;;;4.29;56.53
63306;BME280;50735;52.060;1.248;2023-01-27T08:31:47;102711.20;;;3.92;56.81
63306;BME280;50735;52.060;1.248;2023-01-27T08:34:14;102718.01;;;3.86;56.84
63306;BME280;50735;52.060;1.248;2023-01-27T08:36:41;102721.11;;;4.03;56.77
63306;BME280;50735;52.060;1.248;2023-01-27T08:39:08;102719.73;;;4.11;57.04
63306;BME280;50735;52.060;1.248;2023-01-27T08:41:35;102720.85;;;3.88;56.76
63306;BME280;50735;52.060;1.248;2023-01-27T08:44:03;102724.63;;;4.09;56.59
63306;BME280;50735;52.060;1.248;2023-01-27T08:46:30;102731.19;;;4.14;56.41
63306;BME280;50735;52.060;1.248;2023-01-27T08:48:57;102736.18;;;4.24;56.25
63306;BME280;50735;52.060;1.248;2023-01-27T08:51:23;102740.20;;;4.07;56.43
63306;BME280;50735;52.060;1.248;2023-01-27T08:53:50;102742.64;;;4.16;56.43
63306;BME280;50735;52.060;1.248;2023-01-27T08:56:17;102745.63;;;4.36;56.50
63306;BME280;50735;52.060;1.248;2023-01-27T08:58:44;102750.87;;;4.14;56.66
63306;BME280;50735;52.060;1.248;2023-01-27T09:01:12;102751.93;;;3.93;57.10
63306;BME280;50735;52.060;1.248;2023-01-27T09:03:38;102759.72;;;3.80;57.67
63306;BME280;50735;52.060;1.248;2023-01-27T09:06:08;102766.92;;;3.74;57.94
63306;BME280;50735;52.060;1.248;2023-01-27T09:08:36;102765.89;;;3.83;57.89
63306;BME280;50735;52.060;1.248;2023-01-27T09:11:07;102767.19;;;3.71;57.87
63306;BME280;50735;52.060;1.248;2023-01-27T09:13:35;102766.10;;;4.01;57.73
63306;BME280;50735;52.060;1.248;2023-01-27T09:16:02;102771.48;;;4.24;57.19
63306;BME280;50735;52.060;1.248;2023-01-27T09:18:29;102774.95;;;4.41;56.80
63306;BME280;50735;52.060;1.248;2023-01-27T09:20:56;102771.23;;;4.76;56.22
63306;BME280;50735;52.060;1.248;2023-01-27T09:23:23;102769.74;;;4.88;55.99
63306;BME280;50735;52.060;1.248;2023-01-27T09:25:50;102772.43;;;4.92;55.39
63306;BME280;50735;52.060;1.248;2023-01-27T09:28:16;102778.50;;;5.27;55.09
63306;BME280;50735;52.060;1.248;2023-01-27T09:30:43;102778.18;;;5.26;55.19
63306;BME280;50735;52.060;1.248;2023-01-27T09:33:10;102774.32;;;4.95;55.16
63306;BME280;50735;52.060;1.248;2023-01-27T09:35:43;102782.30;;;6.00;58.71
63306;BME280;50735;52.060;1.248;2023-01-27T09:38:13;102779.80;;;5.76;55.79
63306;BME280;50735;52.060;1.248;2023-01-27T09:40:55;102782.46;;;5.72;54.14
63306;BME280;50735;52.060;1.248;2023-01-27T09:43:37;102786.30;;;5.35;54.50
63306;BME280;50735;52.060;1.248;2023-01-27T09:46:20;102783.25;;;5.33;54.32
63306;BME280;50735;52.060;1.248;2023-01-27T09:49:04;102783.71;;;5.40;54.54
63306;BME280;50735;52.060;1.248;2023-01-27T09:51:42;102784.05;;;5.67;54.21
63306;BME280;50735;52.060;1.248;2023-01-27T09:54:26;102784.82;;;5.48;53.96
63306;BME280;50735;52.060;1.248;2023-01-27T09:57:06;102785.64;;;5.79;53.63
63306;BME280;50735;52.060;1.248;2023-01-27T09:59:51;102790.85;;;5.90;53.61
63306;BME280;50735;52.060;1.248;2023-01-27T10:02:35;102789.08;;;6.13;56.96
63306;BME280;50735;52.060;1.248;2023-01-27T10:05:19;102784.70;;;6.57;54.43
63306;BME280;50735;52.060;1.248;2023-01-27T10:08:07;102787.02;;;6.40;52.28
63306;BME280;50735;52.060;1.248;2023-01-27T10:10:46;102782.46;;;6.48;53.89
63306;BME280;50735;52.060;1.248;2023-01-27T10:13:26;102782.82;;;7.18;53.43
63306;BME280;50735;52.060;1.248;2023-01-27T10:16:05;102781.68;;;7.70;52.58
63306;BME280;50735;52.060;1.248;2023-01-27T10:18:48;102783.90;;;8.42;50.82
63306;BME280;50735;52.060;1.248;2023-01-27T10:21:23;102784.79;;;8.53;49.33
63306;BME280;50735;52.060;1.248;2023-01-27T10:24:00;102783.24;;;9.56;47.45
63306;BME280;50735;52.060;1.248;2023-01-27T10:26:35;102781.73;;;10.38;45.42
63306;BME280;50735;52.060;1.248;2023-01-27T10:29:08;102781.29;;;10.77;44.27
63306;BME280;50735;52.060;1.248;2023-01-27T10:31:38;102780.31;;;11.01;43.16
63306;BME280;50735;52.060;1.248;2023-01-27T10:34:18;102780.93;;;10.78;40.53
63306;BME280;50735;52.060;1.248;2023-01-27T10:36:54;102779.89;;;9.62;42.68
63306;BME280;50735;52.060;1.248;2023-01-27T10:39:32;102783.26;;;9.85;42.79
63306;BME280;50735;52.060;1.248;2023-01-27T10:42:07;102778.46;;;9.65;43.66
63306;BME280;50735;52.060;1.248;2023-01-27T10:44:48;102782.61;;;9.65;43.31
63306;BME280;50735;52.060;1.248;2023-01-27T10:47:29;102788.53;;;9.89;42.83
63306;BME280;50735;52.060;1.248;2023-01-27T10:50:02;102790.05;;;8.39;44.34
63306;BME280;50735;52.060;1.248;2023-01-27T10:52:36;102790.44;;;7.94;45.60
63306;BME280;50735;52.060;1.248;2023-01-27T10:55:13;102788.75;;;7.43;46.74
63306;BME280;50735;52.060;1.248;2023-01-27T10:57:46;102790.90;;;7.35;47.64
63306;BME280;50735;52.060;1.248;2023-01-27T11:00:28;102800.67;;;6.01;49.94
63306;BME280;50735;52.060;1.248;2023-01-27T11:03:03;102800.14;;;5.77;51.38
63306;BME280;50735;52.060;1.248;2023-01-27T11:05:35;102796.84;;;7.22;50.32
63306;BME280;50735;52.060;1.248;2023-01-27T11:08:06;102792.69;;;6.63;49.78
63306;BME280;50735;52.060;1.248;2023-01-27T11:10:40;102792.78;;;7.15;48.96
63306;BME280;50735;52.060;1.248;2023-01-27T11:13:09;102785.39;;;7.64;48.05
63306;BME280;50735;52.060;1.248;2023-01-27T11:15:38;102783.26;;;8.01;47.38
63306;BME280;50735;52.060;1.248;2023-01-27T11:18:12;102787.76;;;8.30;46.73
63306;BME280;50735;52.060;1.248;2023-01-27T11:20:42;102782.53;;;7.76;47.42
63306;BME280;50735;52.060;1.248;2023-01-27T11:23:16;102776.50;;;8.04;47.13
63306;BME280;50735;52.060;1.248;2023-01-27T11:25:45;102779.49;;;7.72;47.43
63306;BME280;50735;52.060;1.248;2023-01-27T11:28:22;102776.05;;;8.93;46.03
63306;BME280;50735;52.060;1.248;2023-01-27T11:31:00;102769.70;;;9.07;44.37
63306;BME280;50735;52.060;1.248;2023-01-27T11:33:41;102770.01;;;9.13;44.75
63306;BME280;50735;52.060;1.248;2023-01-27T11:36:12;102768.67;;;9.38;44.74
63306;BME280;50735;52.060;1.248;2023-01-27T11:38:40;102763.63;;;9.54;43.94
63306;BME280;50735;52.060;1.248;2023-01-27T11:41:06;102757.48;;;9.47;44.04
63306;BME280;50735;52.060;1.248;2023-01-27T11:43:33;102760.96;;;9.28;44.05
63306;BME280;50735;52.060;1.248;2023-01-27T11:46:01;102753.39;;;9.13;44.08
63306;BME280;50735;52.060;1.248;2023-01-27T11:48:36;102748.84;;;9.96;43.08
63306;BME280;50735;52.060;1.248;2023-01-27T11:51:04;102749.12;;;9.46;43.38
63306;BME280;50735;52.060;1.248;2023-01-27T11:53:35;102748.77;;;8.49;44.95
63306;BME280;50735;52.060;1.248;2023-01-27T11:56:07;102749.82;;;8.68;45.31
63306;BME280;50735;52.060;1.248;2023-01-27T11:58:40;102751.46;;;7.98;45.36
63306;BME280;50735;52.060;1.248;2023-01-27T12:01:12;102745.17;;;7.76;46.84
63306;BME280;50735;52.060;1.248;2023-01-27T12:03:48;102738.64;;;7.06;48.06
63306;BME280;50735;52.060;1.248;2023-01-27T12:06:25;102743.10;;;7.55;47.76
63306;BME280;50735;52.060;1.248;2023-01-27T12:08:54;102741.18;;;8.41;47.75
63306;BME280;50735;52.060;1.248;2023-01-27T12:11:23;102729.49;;;8.54;46.86
63306;BME280;50735;52.060;1.248;2023-01-27T12:13:53;102727.76;;;8.83;45.85
63306;BME280;50735;52.060;1.248;2023-01-27T12:16:23;102727.17;;;8.74;44.42
63306;BME280;50735;52.060;1.248;2023-01-27T12:18:55;102724.69;;;8.99;45.11
63306;BME280;50735;52.060;1.248;2023-01-27T12:21:34;102729.49;;;8.10;45.04
63306;BME280;50735;52.060;1.248;2023-01-27T12:24:05;102721.97;;;8.46;45.21
63306;BME280;50735;52.060;1.248;2023-01-27T12:26:39;102725.47;;;8.84;44.72
63306;BME280;50735;52.060;1.248;2023-01-27T12:29:16;102724.22;;;8.88;44.19
63306;BME280;50735;52.060;1.248;2023-01-27T12:31:47;102720.26;;;8.45;44.29
63306;BME280;50735;52.060;1.248;2023-01-27T12:34:24;102722.48;;;7.52;45.36
63306;BME280;50735;52.060;1.248;2023-01-27T12:36:52;102717.98;;;7.06;47.43
63306;BME280;50735;52.060;1.248;2023-01-27T12:39:27;102717.16;;;7.61;46.70
63306;BME280;50735;52.060;1.248;2023-01-27T12:41:56;102723.87;;;7.30;46.81
63306;BME280;50735;52.060;1.248;2023-01-27T12:44:22;102722.75;;;7.06;46.51
63306;BME280;50735;52.060;1.248;2023-01-27T12:46:59;102724.76;;;7.47;45.96
63306;BME280;50735;52.060;1.248;2023-01-27T12:49:32;102718.69;;;8.11;46.06
63306;BME280;50735;52.060;1.248;2023-01-27T12:52:01;102716.29;;;7.46;46.09
63306;BME280;50735;52.060;1.248;2023-01-27T12:54:30;102716.42;;;7.46;45.50
63306;BME280;50735;52.060;1.248;2023-01-27T12:57:01;102711.62;;;6.73;45.46
63306;BME280;50735;52.060;1.248;2023-01-27T12:59:29;102709.07;;;7.44;45.51
63306;BME280;50735;52.060;1.248;2023-01-27T13:01:59;102710.03;;;7.01;44.25
63306;BME280;50735;52.060;1.248;2023-01-27T13:04:26;102712.74;;;7.21;45.19
63306;BME280;50735;52.060;1.248;2023-01-27T13:07:02;102709.12;;;7.77;44.83
63306;BME280;50735;52.060;1.248;2023-01-27T13:09:33;102711.09;;;7.12;44.91